Flight Track Log - Related Links

Times and Time Zones

All times are in EDT time to prevent confusion due to time zone crossing. See the ACA794 flight status page for this flight to view local times or setup timezone preferences in your user account.

Time Position Orientation Groundspeed Altitude Reporting Facility
EDT Latitude Longitude Course Direction KTS MPH feet Rate Location/Type
Thu 12:04:04 PM 33.9428 -118.4728 68° East 194 223 1,900  Level Los Angeles Center
Thu 12:05:06 PM 33.9353 -118.5481 263° West 229 264 2,900 1,806 Climbing Los Angeles Center
Thu 12:07:10 PM 33.8508 -118.5781 196° South 284 327 7,500 2,214 Climbing Los Angeles Center
Thu 12:08:13 PM 33.8994 -118.4908 56° Northeast 289 333 9,800 2,352 Climbing Los Angeles Center
Thu 12:09:00 PM 34.2600 -117.8366 68° East  Level FlightAware Approximate
Thu 12:09:15 PM 33.9508 -118.4067 54° Northeast 297 342 12,400  Level Los Angeles Center
Thu 12:10:17 PM 33.9967 -118.3231 57° Northeast 295 339 13,600 968 Climbing Los Angeles Center
Thu 12:11:19 PM 34.0528 -118.2258 55° Northeast 337 388 14,400 919 Climbing Los Angeles Center
Thu 12:12:21 PM 34.1142 -118.1181 55° Northeast 377 434 15,500 1,419 Climbing Los Angeles Center
Thu 12:14:25 PM 34.2408 -117.8850 57° Northeast 413 475 18,800 1,518 Climbing Los Angeles Center
Thu 12:16:30 PM 34.3864 -117.6256 56° Northeast 423 487 21,800 1,283 Climbing Los Angeles Center
Thu 12:17:32 PM 34.4431 -117.5186 57° Northeast 436 502 22,800 1,032 Climbing Los Angeles Center
Thu 12:19:36 PM 34.6133 -117.2628 59° Northeast 452 520 25,000 987 Climbing Los Angeles Center
Thu 12:22:42 PM 34.8661 -116.9056 44° Northeast 468 539 27,900 992 Climbing Los Angeles Center
Thu 12:23:44 PM 34.9678 -116.7631 49° Northeast 467 537 29,100 1,056 Climbing Los Angeles Center
Thu 12:24:47 PM 35.0531 -116.6442 49° Northeast 462 532 30,100 819 Climbing Los Angeles Center
Thu 12:27:53 PM 35.3039 -116.2858 46° Northeast 464 534 32,500 702 Climbing Los Angeles Center
Thu 12:28:00 PM 35.2390 -116.2223 44° Northeast  Level FlightAware Approximate
Thu 12:28:55 PM 35.4014 -116.1439 50° Northeast 459 528 33,000  Level Los Angeles Center
Thu 12:30:00 PM 35.4767 -116.0008 57° Northeast  Level FlightAware Approximate
Thu 12:30:59 PM 35.5689 -115.9028 57° Northeast 467 537 33,000  Level Los Angeles Center
Thu 12:32:01 PM 35.6600 -115.7647 51° Northeast 453 521 33,000  Level Los Angeles Center
Thu 12:33:00 PM 35.6897 -115.6371 46° Northeast  Level FlightAware Approximate
Thu 12:34:06 PM 35.8247 -115.5264 50° Northeast 457 526 33,000  Level Los Angeles Center
Thu 12:36:10 PM 35.9897 -115.2881 49° Northeast 459 528 33,000  Level Los Angeles Center
Thu 12:37:12 PM 36.0781 -115.1397 54° Northeast 452 520 33,000  Level Los Angeles Center
Thu 12:38:14 PM 36.1278 -114.9947 67° East 458 527 33,000  Level Los Angeles Center
Thu 12:39:16 PM 36.1728 -114.8478 69° East 458 527 33,000  Level Los Angeles Center
Thu 12:40:18 PM 36.2178 -114.6997 69° East 460 529 33,000  Level Los Angeles Center
Thu 12:41:20 PM 36.2636 -114.5500 69° East 461 531 33,000  Level Los Angeles Center
Thu 12:42:22 PM 36.3189 -114.3700 69° East 465 535 33,000  Level Los Angeles Center
Thu 12:43:25 PM 36.3639 -114.2197 70° East 465 535 33,000  Level Los Angeles Center
Thu 12:44:27 PM 36.4094 -114.0703 69° East 465 535 33,000  Level Los Angeles Center
Thu 12:45:29 PM 36.4539 -113.9189 70° East 465 535 33,000  Level Los Angeles Center
Thu 12:47:33 PM 36.5453 -113.6111 71° East 465 535 33,000  Level Los Angeles Center
Thu 12:48:35 PM 36.5897 -113.4600 70° East 465 535 33,000  Level Los Angeles Center
Thu 12:49:38 PM 36.6414 -113.2797 70° East 465 535 33,000  Level Los Angeles Center
Thu 12:50:40 PM 36.6847 -113.1292 70° East 465 535 33,000  Level Los Angeles Center
Thu 12:51:42 PM 36.7283 -112.9786 70° East 464 534 33,000  Level Los Angeles Center
Thu 12:52:44 PM 36.7706 -112.8286 71° East 464 534 33,000  Level Los Angeles Center
Thu 12:54:49 PM 36.8661 -112.4997 70° East 463 533 33,000 96 Level Los Angeles Center
Thu 12:55:51 PM 36.9075 -112.3489 71° East 462 532 33,300 290 Climbing Los Angeles Center
Thu 12:56:53 PM 36.9511 -112.1983 70° East 462 532 33,600 435 Climbing Los Angeles Center
Thu 12:57:55 PM 36.9950 -112.0442 70° East 465 535 34,200 484 Climbing Los Angeles Center
Thu 12:58:57 PM 37.0367 -111.8897 71° East 467 537 34,600 387 Climbing Los Angeles Center
Thu 12:59:59 PM 37.0878 -111.7056 71° East 468 539 35,000 192 Climbing Los Angeles Center
Thu 01:01:02 PM 37.1303 -111.5506 71° East 470 541 35,000  Level Denver Center
Thu 01:03:06 PM 37.2156 -111.2436 71° East 470 541 35,000  Level Los Angeles Center
Thu 01:04:08 PM 37.2594 -111.0889 70° East 470 541 35,000  Level Denver Center
Thu 01:05:10 PM 37.3075 -110.9042 72° East 470 541 35,000  Level Denver Center
Thu 01:06:12 PM 37.3483 -110.7514 71° East 466 536 35,000  Level Denver Center
Thu 01:07:14 PM 37.3897 -110.5961 71° East 466 536 35,000  Level Denver Center
Thu 01:08:16 PM 37.4294 -110.4431 72° East 466 536 35,000  Level Denver Center
Thu 01:12:25 PM 37.5975 -109.7897 76° East 466 536 35,000  Level Denver Center
Thu 01:14:29 PM 37.6775 -109.4681 72° East 465 535 35,000  Level Denver Center
Thu 01:15:31 PM 37.7156 -109.3172 72° East 466 536 35,000  Level Denver Center
Thu 01:17:35 PM 37.7944 -108.9919 66° East 469 540 35,000  Level Denver Center
Thu 01:19:39 PM 37.8728 -108.6669 73° East 466 536 35,000  Level Denver Center
Thu 01:20:41 PM 37.9083 -108.5186 73° East 465 535 35,000  Level Denver Center
Thu 01:21:43 PM 37.9511 -108.3447 73° East 465 535 35,000  Level Denver Center
Thu 01:22:46 PM 37.9867 -108.2003 73° East 456 525 35,000  Level Denver Center
Thu 01:23:48 PM 38.0281 -108.0289 73° East 456 525 35,000  Level Denver Center
Thu 01:25:52 PM 38.1069 -107.7078 75° East 456 525 35,000  Level Denver Center
Thu 01:26:54 PM 38.1431 -107.5600 73° East 456 525 35,000  Level Denver Center
Thu 01:28:58 PM 38.2206 -107.2306 73° East 457 526 35,000  Level Denver Center
Thu 01:30:00 PM 38.2575 -107.0753 73° East 458 527 35,000  Level Denver Center
Thu 01:31:02 PM 38.2936 -106.9178 74° East 460 529 35,000  Level Denver Center
Thu 01:32:04 PM 38.3292 -106.7617 74° East 461 531 35,000  Level Denver Center
Thu 01:33:06 PM 38.3647 -106.6047 74° East 462 532 35,000  Level Denver Center
Thu 01:34:09 PM 38.3989 -106.4486 74° East 461 531 35,000  Level Denver Center
Thu 01:35:11 PM 38.4406 -106.2608 74° East 460 529 35,000  Level Denver Center
Thu 01:36:13 PM 38.4789 -106.0903 74° East 461 531 35,000  Level Denver Center
Thu 01:37:15 PM 38.5136 -105.9344 74° East 460 529 35,000  Level Denver Center
Thu 01:38:17 PM 38.5489 -105.7844 73° East 459 528 35,000  Level Denver Center
Thu 01:39:19 PM 38.5819 -105.6303 75° East 456 525 35,000  Level Denver Center
Thu 01:40:21 PM 38.6142 -105.4753 75° East 455 524 35,000  Level Denver Center
Thu 01:41:24 PM 38.6528 -105.2878 75° East 456 525 35,000  Level Denver Center
Thu 01:42:26 PM 38.6872 -105.1319 74° East 458 527 35,000  Level Denver Center
Thu 01:43:28 PM 38.7186 -104.9756 76° East 458 527 35,000  Level Denver Center
Thu 01:44:30 PM 38.7511 -104.8222 75° East 452 520 35,000  Level Denver Center
Thu 01:45:32 PM 38.7839 -104.6683 75° East 452 520 35,000  Level Denver Center
Thu 01:46:34 PM 38.8228 -104.4867 75° East 447 514 35,000  Level Denver Center
Thu 01:47:36 PM 38.8539 -104.3317 76° East 447 514 35,000  Level Denver Center
Thu 01:48:38 PM 38.8861 -104.1731 75° East 456 525 35,000  Level Denver Center
Thu 01:49:40 PM 38.9172 -104.0175 76° East 456 525 35,000  Level Denver Center
Thu 01:50:42 PM 38.9497 -103.8633 75° East 455 524 35,000  Level Denver Center
Thu 01:52:47 PM 39.0167 -103.5236 77° East 449 517 35,000  Level Denver Center
Thu 01:53:49 PM 39.0472 -103.3681 76° East 449 517 35,000  Level Denver Center
Thu 01:54:51 PM 39.0772 -103.2111 76° East 450 518 35,000  Level Denver Center
Thu 01:56:55 PM 39.1369 -102.8983 77° East 452 520 35,000  Level Denver Center
Thu 01:57:57 PM 39.1694 -102.7264 76° East 453 521 35,000  Level Denver Center
Thu 01:58:59 PM 39.2031 -102.5492 76° East 454 522 35,000  Level Denver Center
Thu 02:02:05 PM 39.2922 -102.0617 77° East 460 529 35,000  Level Denver Center
Thu 02:03:07 PM 39.3244 -101.8811 77° East 461 531 35,000  Level Denver Center
Thu 02:04:09 PM 39.3528 -101.7206 77° East 460 529 35,000  Level Denver Center
Thu 02:05:12 PM 39.3806 -101.5672 77° East 458 527 35,000  Level Denver Center
Thu 02:06:14 PM 39.4117 -101.3875 77° East 458 527 35,000  Level Denver Center
Thu 02:07:00 PM 39.4162 -101.2794 77° East  Level FlightAware Approximate
Thu 02:07:16 PM 39.4386 -101.2331 77° East 458 527 35,000  Level Denver Center
Thu 02:08:17 PM 39.4700 -101.0525 77° East 463 533 35,000  Level Denver Center
Thu 02:09:20 PM 39.4975 -100.8978 77° East 463 533 35,000  Level Denver Center
Thu 02:11:24 PM 39.5542 -100.5611 78° East 463 533 35,000  Level Denver Center
Thu 02:12:26 PM 39.5844 -100.3792 78° East 462 532 35,000  Level Denver Center
Thu 02:14:44 PM 39.6419 -100.0267 78° East 465 535 35,000  Level Minneapolis Center
Thu 02:15:46 PM 39.6739 -99.8331 78° East 465 535 35,000  Level Minneapolis Center
Thu 02:16:34 PM 39.6944 -99.7025 78° East 462 532 35,000  Level Denver Center
Thu 02:17:36 PM 39.7206 -99.5389 78° East 464 534 35,000  Level Denver Center
Thu 02:19:40 PM 39.7736 -99.2156 78° East 461 531 35,000  Level Denver Center
Thu 02:20:43 PM 39.7992 -99.0517 78° East 461 531 35,000  Level Denver Center
Thu 02:21:59 PM 39.8356 -98.8222 78° East 462 532 35,000  Level Minneapolis Center
Thu 02:23:01 PM 39.8608 -98.6603 78° East 462 532 35,000  Level Minneapolis Center
Thu 02:24:03 PM 39.8850 -98.4978 79° East 462 532 35,000  Level Minneapolis Center
Thu 02:25:05 PM 39.9106 -98.3319 79° East 462 532 35,000  Level Minneapolis Center
Thu 02:26:07 PM 39.9328 -98.1672 80° East 463 533 35,000  Level Minneapolis Center
Thu 02:27:09 PM 39.9550 -98.0022 80° East 463 533 35,000  Level Minneapolis Center
Thu 02:28:11 PM 39.9833 -97.8025 79° East 464 534 35,000  Level Minneapolis Center
Thu 02:29:13 PM 40.0061 -97.6350 80° East 466 536 35,000  Level Minneapolis Center
Thu 02:30:16 PM 40.0286 -97.4694 80° East 466 536 35,000  Level Minneapolis Center
Thu 02:31:18 PM 40.0500 -97.3092 80° East 467 537 35,000  Level Minneapolis Center
Thu 02:32:20 PM 40.0728 -97.1414 80° East 467 537 35,000  Level Minneapolis Center
Thu 02:33:22 PM 40.0994 -96.9417 80° East 468 539 35,000  Level Minneapolis Center
Thu 02:34:24 PM 40.1222 -96.7739 80° East 468 539 35,000  Level Minneapolis Center
Thu 02:37:30 PM 40.1872 -96.2706 80° East 469 540 35,000  Level Minneapolis Center
Thu 02:38:32 PM 40.2161 -96.0708 79° East 469 540 35,000  Level Minneapolis Center
Thu 02:40:37 PM 40.2753 -95.7444 77° East 467 537 35,000  Level Minneapolis Center
Thu 02:42:41 PM 40.3347 -95.4150 77° East 467 537 35,000  Level Minneapolis Center
Thu 02:44:45 PM 40.3969 -95.0553 78° East 465 535 35,000  Level Minneapolis Center
Thu 02:45:47 PM 40.4239 -94.8892 78° East 465 535 35,000  Level Minneapolis Center
Thu 02:47:49 PM 40.4775 -94.5544 78° East 466 536 35,000  Level Chicago Center
Thu 02:48:51 PM 40.5044 -94.3906 78° East 465 535 35,000  Level Chicago Center
Thu 02:49:56 PM 40.5297 -94.2269 78° East 464 534 35,000  Level Minneapolis Center
Thu 02:50:58 PM 40.5589 -94.0292 79° East 464 534 35,000  Level Minneapolis Center
Thu 02:52:00 PM 40.5839 -93.8644 79° East 464 534 35,000  Level Minneapolis Center
Thu 02:54:01 PM 40.6342 -93.5311 79° East 465 535 35,000  Level Chicago Center
Thu 02:55:03 PM 40.6658 -93.3672 76° East 466 536 35,000  Level Chicago Center
Thu 02:57:10 PM 40.7483 -93.0056 73° East 466 536 35,000  Level Minneapolis Center
Thu 02:58:12 PM 40.7856 -92.8394 73° East 467 537 35,000  Level Minneapolis Center
Thu 02:59:12 PM 40.8233 -92.6731 73° East 469 540 35,000  Level Chicago Center
Thu 03:00:14 PM 40.8608 -92.5050 74° East 473 544 35,000  Level Chicago Center
Thu 03:01:16 PM 40.8981 -92.3394 73° East 473 544 35,000  Level Chicago Center
Thu 03:02:19 PM 40.9350 -92.1725 74° East 473 544 35,000 242 Level Chicago Center
Thu 03:03:20 PM 40.9786 -91.9683 74° East 482 555 35,500 419 Climbing Chicago Center
Thu 03:05:25 PM 41.0467 -91.6389 75° East 483 556 36,300 361 Climbing Chicago Center
Thu 03:07:29 PM 41.1278 -91.2536 74° East 491 565 37,000 226 Climbing Chicago Center
Thu 03:08:31 PM 41.1631 -91.0778 75° East 493 567 37,000  Level Chicago Center
Thu 03:09:33 PM 41.1964 -90.9019 76° East 492 566 37,000  Level Chicago Center
Thu 03:10:35 PM 41.2303 -90.7258 76° East 491 565 37,000  Level Chicago Center
Thu 03:11:37 PM 41.2650 -90.5506 75° East 491 565 37,000  Level Chicago Center
Thu 03:13:42 PM 41.3400 -90.1636 76° East 490 564 37,000  Level Chicago Center
Thu 03:14:44 PM 41.3742 -89.9875 75° East 490 564 37,000  Level Chicago Center
Thu 03:15:46 PM 41.4081 -89.8111 76° East 490 564 37,000  Level Chicago Center
Thu 03:17:50 PM 41.4761 -89.4533 76° East 495 570 37,000  Level Chicago Center
Thu 03:19:54 PM 41.5478 -89.0739 77° East 503 579 37,000  Level Chicago Center
Thu 03:21:59 PM 41.6169 -88.7072 79° East 512 589 37,000  Level Chicago Center
Thu 03:23:01 PM 41.6508 -88.5217 76° East 513 590 37,000  Level Chicago Center
Thu 03:24:03 PM 41.6908 -88.2983 76° East 512 589 37,000  Level Chicago Center
Thu 03:25:05 PM 41.7233 -88.1089 77° East 514 592 37,000  Level Chicago Center
Thu 03:26:07 PM 41.7564 -87.9208 77° East 514 592 37,000  Level Chicago Center
Thu 03:27:09 PM 41.7867 -87.7331 78° East 513 590 37,000  Level Chicago Center
Thu 03:29:13 PM 41.8500 -87.3600 77° East 512 589 37,000  Level Chicago Center
Thu 03:30:16 PM 41.8806 -87.1733 78° East 512 589 37,000  Level Chicago Center
Thu 03:31:18 PM 41.9164 -86.9478 78° East 513 590 37,000  Level Chicago Center
Thu 03:32:20 PM 41.9467 -86.7589 78° East 517 595 37,000  Level Chicago Center
Thu 03:34:33 PM 42.0089 -86.3564 80° East 519 597 37,000  Level Cleveland Center
Thu 03:35:26 PM 42.0394 -86.1683 78° East 518 596 37,000  Level Chicago Center
Thu 03:37:38 PM 42.1025 -85.7494 78° East 516 594 37,000  Level Cleveland Center
Thu 03:38:40 PM 42.1322 -85.5586 78° East 516 594 37,000  Level Cleveland Center
Thu 03:39:34 PM 42.1561 -85.3931 79° East 517 595 37,000  Level Chicago Center
Thu 03:40:37 PM 42.1844 -85.2028 79° East 518 596 37,000  Level Chicago Center
Thu 03:41:39 PM 42.2139 -85.0108 78° East 524 603 37,000  Level Chicago Center
Thu 03:43:43 PM 42.2667 -84.6386 79° East 511 588 37,000  Level Chicago Center
Thu 03:44:45 PM 42.2981 -84.4136 79° East 510 587 37,000  Level Chicago Center
Thu 03:45:47 PM 42.3231 -84.2258 80° East 510 587 37,000  Level Chicago Center
Thu 03:46:55 PM 42.3511 -84.0144 80° East 512 589 37,000 -92 Level Cleveland Center
Thu 03:47:57 PM 42.3775 -83.8239 79° East 513 590 36,800 -290 Descending Cleveland Center
Thu 03:48:59 PM 42.4036 -83.6303 80° East 513 590 36,400 -484 Descending Cleveland Center
Thu 03:51:03 PM 42.5006 -83.2528 71° East 525 604 35,300 -484 Descending Cleveland Center
Thu 03:52:05 PM 42.5503 -83.0683 70° East 522 601 34,900 -435 Descending Cleveland Center
Thu 03:53:07 PM 42.5983 -82.8850 70° East 520 598 34,400 -581 Descending Cleveland Center
Thu 03:54:09 PM 42.6550 -82.6686 70° East 509 586 33,700 -581 Descending Cleveland Center
Thu 03:55:11 PM 42.7011 -82.4933 70° East 500 575 33,200 -532 Descending Cleveland Center
Thu 03:56:13 PM 42.7442 -82.3211 71° East 485 558 32,600 -581 Descending Cleveland Center
Thu 03:57:15 PM 42.7878 -82.1481 71° East 485 558 32,000 -532 Descending Cleveland Center
Thu 03:58:17 PM 42.8311 -81.9778 71° East 479 551 31,500 -1,127 Descending Cleveland Center
Thu 04:00:16 PM 42.9167 -81.6167 72° East 450 518 28,600 -1,676 Descending Toronto Center
Thu 04:01:16 PM 42.9500 -81.4500 75° East 440 506 26,500 -2,350 Descending Toronto Center
Thu 04:02:16 PM 42.9833 -81.3000 73° East 430 495 23,900 -2,400 Descending Toronto Center
Thu 04:03:16 PM 43.0167 -81.1667 71° East 440 506 21,700 -1,450 Descending Toronto Center
Thu 04:04:16 PM 43.0833 -81.0333 56° Northeast 410 472 21,000 -650 Descending Toronto Center
Thu 04:05:16 PM 43.1500 -80.9167 52° Northeast 390 449 20,400 -1,200 Descending Toronto Center
Thu 04:06:16 PM 43.2333 -80.7833 49° Northeast 390 449 18,600 -1,600 Descending Toronto Center
Thu 04:07:16 PM 43.3000 -80.6833 47° Northeast 370 426 17,200 -1,533 Descending Toronto Center
Thu 04:09:16 PM 43.4500 -80.5000 53° Northeast 350 403 14,000 -1,800 Descending Toronto Center
Thu 04:11:16 PM 43.5500 -80.3167 53° Northeast 320 368 10,000 -1,700 Descending Toronto Center
Thu 04:14:16 PM 43.4833 -80.0167 65° Northeast 260 299 5,500 -1,000 Descending Toronto Center
Thu 04:17:16 PM 43.5167 -79.8000 65° Northeast 210 242 4,000 -650 Descending Toronto Center
Thu 04:18:16 PM 43.5667 -79.7167 50° Northeast 200 230 2,900 -875 Descending Toronto Center
Thu 04:21:16 PM 43.6500 -79.6167 71° East 140 161 500 -800 Descending Toronto Center

Login

Don't have an account? Register now (free) for customized features, flight alerts, and more!